Time;durP1;ratioP1;P1;durP2;ratioP2;P2;SDS_P1;SDS_P2;PMS_P1;PMS_P2;Temp;Humidity;BMP_temperature;BMP_pressure;BME280_temperature;BME280_humidity;BME280_pressure;Samples;Min_cycle;Max_cycle;Signal;HPM_P1;HPM_P2
2022/06/10 00:01:47;;;;;;;3.38;0.90;;;16.80;57.70;;;;;;5052536;28;20071;-62
2022/06/10 00:04:13;;;;;;;3.78;0.98;;;16.70;57.70;;;;;;5055339;28;20025;-62
2022/06/10 00:06:38;;;;;;;4.43;1.08;;;16.70;57.60;;;;;;5059990;28;20033;-62
2022/06/10 00:09:04;;;;;;;2.28;1.00;;;16.70;58.30;;;;;;5053911;28;22337;-62
2022/06/10 00:11:30;;;;;;;3.42;0.90;;;16.70;57.80;;;;;;5055874;28;20025;-62
2022/06/10 00:13:55;;;;;;;1.77;0.80;;;16.60;57.70;;;;;;5057674;28;20029;-62
2022/06/10 00:16:22;;;;;;;3.58;0.82;;;16.50;57.70;;;;;;5059143;28;20049;-62
2022/06/10 00:18:48;;;;;;;2.55;1.05;;;16.50;57.60;;;;;;5057036;28;20033;-63
2022/06/10 00:21:20;;;;;;;3.70;1.20;;;16.50;58.00;;;;;;5056979;28;20048;-62
2022/06/10 00:23:46;;;;;;;2.60;0.95;;;16.40;58.00;;;;;;5057888;28;20459;-62
2022/06/10 00:26:20;;;;;;;2.58;0.98;;;16.30;57.90;;;;;;5019415;28;20730;-62
2022/06/10 00:28:47;;;;;;;2.27;1.13;;;16.30;58.70;;;;;;5035804;28;20031;-62
2022/06/10 00:31:14;;;;;;;4.10;1.10;;;16.20;58.10;;;;;;5058021;28;20131;-62
2022/06/10 00:33:40;;;;;;;3.60;0.93;;;16.20;58.40;;;;;;5059480;28;20025;-62
2022/06/10 00:36:08;;;;;;;2.28;1.00;;;16.10;58.70;;;;;;5053870;28;20040;-62
2022/06/10 00:38:34;;;;;;;2.17;0.88;;;16.00;58.80;;;;;;5056973;28;20044;-62
2022/06/10 00:41:00;;;;;;;2.50;0.98;;;16.00;58.70;;;;;;5055922;28;20029;-62
2022/06/10 00:43:31;;;;;;;2.75;1.10;;;15.90;58.90;;;;;;5042913;28;20032;-62
2022/06/10 00:46:16;;;;;;;2.03;0.98;;;15.90;59.40;;;;;;5056335;28;20531;-63
2022/06/10 00:48:55;;;;;;;2.88;1.10;;;15.90;60.00;;;;;;5055294;28;20033;-62
2022/06/10 00:51:33;;;;;;;2.67;1.00;;;15.90;59.60;;;;;;5058800;28;20041;-62
2022/06/10 00:54:12;;;;;;;2.78;1.20;;;15.80;59.60;;;;;;5060361;28;20021;-62
2022/06/10 00:56:42;;;;;;;5.18;1.20;;;15.80;59.50;;;;;;5054471;28;20055;-62
2022/06/10 00:59:22;;;;;;;2.65;0.93;;;15.80;59.50;;;;;;5057650;28;20024;-62
2022/06/10 01:01:52;;;;;;;1.67;1.05;;;15.70;59.80;;;;;;5053243;28;20108;-62
2022/06/10 01:04:18;;;;;;;3.25;1.10;;;15.70;59.60;;;;;;5056442;28;20033;-63
2022/06/10 01:06:44;;;;;;;2.67;1.08;;;15.70;59.70;;;;;;5054464;28;20051;-62
2022/06/10 01:09:10;;;;;;;2.80;1.20;;;15.70;59.80;;;;;;5058337;28;20052;-62
2022/06/10 01:11:45;;;;;;;2.40;1.23;;;15.70;60.00;;;;;;5054257;28;20044;-62
2022/06/10 01:14:29;;;;;;;2.58;1.02;;;15.70;60.40;;;;;;5050579;28;20083;-63
2022/06/10 01:17:23;;;;;;;2.03;1.00;;;15.70;60.20;;;;;;5052748;28;20086;-62
2022/06/10 01:19:52;;;;;;;3.60;1.27;;;15.70;61.10;;;;;;5050529;28;20045;-62
2022/06/10 01:22:52;;;;;;;5.25;1.38;;;15.70;60.20;;;;;;5064332;28;20029;-61
2022/06/10 01:25:56;;;;;;;4.97;1.20;;;15.70;61.10;;;;;;5049924;28;20033;-62
2022/06/10 01:28:59;;;;;;;7.00;1.10;;;15.60;61.20;;;;;;5057809;28;20029;-62
2022/06/10 01:31:30;;;;;;;5.57;1.23;;;15.60;61.30;;;;;;5054414;28;20029;-62
2022/06/10 01:34:05;;;;;;;3.05;1.10;;;15.60;60.50;;;;;;5056638;28;20052;-62
2022/06/10 01:36:47;;;;;;;;;;;15.60;61.00;;;;;;5051714;28;20393;-62
2022/06/10 01:39:19;;;;;;;2.10;1.08;;;15.60;60.30;;;;;;5052930;28;20361;-62
2022/06/10 01:42:14;;;;;;;2.70;1.02;;;15.60;59.90;;;;;;5050481;28;20021;-62
2022/06/10 01:45:00;;;;;;;3.10;1.33;;;15.60;61.10;;;;;;5059514;28;20020;-63
2022/06/10 01:47:31;;;;;;;2.88;1.08;;;15.60;61.60;;;;;;5057012;28;20045;-62
2022/06/10 01:49:59;;;;;;;2.92;1.00;;;15.60;60.90;;;;;;5053185;28;20037;-62
2022/06/10 01:52:37;;;;;;;2.35;0.93;;;15.50;60.40;;;;;;5054139;28;20103;-62
2022/06/10 01:55:11;;;;;;;2.75;1.08;;;15.50;61.10;;;;;;5053468;28;20037;-62
2022/06/10 01:57:41;;;;;;;2.25;0.98;;;15.50;60.80;;;;;;5052983;28;20055;-62
2022/06/10 02:00:24;;;;;;;2.33;1.00;;;15.50;60.70;;;;;;5060266;28;20036;-62
2022/06/10 02:03:11;;;;;;;2.00;0.90;;;15.50;61.50;;;;;;5055004;28;20028;-62
2022/06/10 02:05:47;;;;;;;2.45;1.35;;;15.50;61.50;;;;;;5052183;28;20127;-62
2022/06/10 02:08:21;;;;;;;1.77;1.00;;;15.50;61.10;;;;;;5056519;28;20036;-61
2022/06/10 02:11:10;;;;;;;3.10;1.10;;;15.50;61.10;;;;;;5054196;28;20036;-62
2022/06/10 02:13:43;;;;;;;2.00;0.95;;;15.50;61.30;;;;;;5054496;28;20052;-62
2022/06/10 02:16:14;;;;;;;1.83;1.20;;;15.50;61.30;;;;;;5053511;28;20030;-62
2022/06/10 02:18:43;;;;;;;1.85;1.13;;;15.50;61.10;;;;;;5060221;28;20094;-62
2022/06/10 02:21:21;;;;;;;1.40;0.85;;;15.40;60.80;;;;;;5045334;28;20339;-62
2022/06/10 02:23:51;;;;;;;4.68;1.20;;;15.40;61.20;;;;;;5046974;28;20484;-62
2022/06/10 02:26:17;;;;;;;5.22;1.42;;;15.40;61.10;;;;;;5043255;28;20044;-61
2022/06/10 02:28:53;;;;;;;3.60;1.30;;;15.30;61.00;;;;;;5038178;28;20059;-62
2022/06/10 02:31:27;;;;;;;3.20;1.20;;;15.30;61.60;;;;;;5042245;28;20024;-62
2022/06/10 02:33:54;;;;;;;2.42;1.00;;;15.30;61.40;;;;;;5042906;28;20504;-62
2022/06/10 02:36:19;;;;;;;2.53;0.95;;;15.20;61.20;;;;;;5060077;28;20052;-61
2022/06/10 02:38:58;;;;;;;1.70;0.90;;;15.20;61.20;;;;;;5058459;28;20350;-61
2022/06/10 02:41:31;;;;;;;2.90;1.20;;;15.10;61.90;;;;;;5046101;28;20037;-62
2022/06/10 02:44:12;;;;;;;1.98;0.93;;;15.10;61.60;;;;;;5052653;28;20087;-62
2022/06/10 02:47:21;;;;;;;1.85;0.90;;;15.10;61.80;;;;;;5052282;28;20065;-62
2022/06/10 02:49:47;;;;;;;4.15;1.00;;;15.00;62.20;;;;;;5007378;28;20476;-62
2022/06/10 02:52:14;;;;;;;3.03;1.00;;;15.00;61.30;;;;;;5016943;28;20081;-62
2022/06/10 02:54:42;;;;;;;3.75;1.35;;;14.90;61.60;;;;;;5013822;28;20042;-62
2022/06/10 02:57:21;;;;;;;6.30;1.05;;;14.90;61.60;;;;;;5015011;28;20036;-61
2022/06/10 03:03:21;;;;;;;3.33;0.95;;;14.90;61.90;;;;;;5008357;28;20047;-62
2022/06/10 03:06:06;;;;;;;1.35;0.85;;;14.90;62.50;;;;;;5013991;28;20042;-62
2022/06/10 03:08:45;;;;;;;1.40;0.90;;;14.80;61.60;;;;;;5013688;28;20519;-62
2022/06/10 03:11:25;;;;;;;3.60;1.27;;;14.80;61.90;;;;;;4998331;28;20058;-61
2022/06/10 03:14:11;;;;;;;3.22;1.20;;;14.70;61.90;;;;;;5010116;28;20038;-62
2022/06/10 03:16:46;;;;;;;2.35;1.20;;;14.70;62.30;;;;;;5015937;28;20040;-62
2022/06/10 03:19:46;;;;;;;2.97;0.90;;;14.70;61.60;;;;;;5016810;28;20038;-61
2022/06/10 03:22:24;;;;;;;1.48;1.05;;;14.70;62.10;;;;;;5018436;28;20118;-62
2022/06/10 03:24:52;;;;;;;1.23;0.95;;;14.60;61.90;;;;;;5012775;28;20058;-61
2022/06/10 03:27:26;;;;;;;3.28;1.20;;;14.60;61.80;;;;;;5051857;28;20049;-62
2022/06/10 03:30:06;;;;;;;3.03;1.13;;;14.50;62.00;;;;;;5056386;28;20041;-61
2022/06/10 03:32:43;;;;;;;2.80;1.17;;;14.50;62.40;;;;;;5059427;28;20381;-62
2022/06/10 03:35:50;;;;;;;2.30;1.00;;;14.40;62.00;;;;;;5056664;28;20056;-62
2022/06/10 03:38:16;;;;;;;2.33;1.25;;;14.40;63.30;;;;;;5017032;28;20057;-62
2022/06/10 03:40:45;;;;;;;2.50;1.00;;;14.30;62.90;;;;;;5017041;28;20037;-62
2022/06/10 03:43:13;;;;;;;2.25;0.98;;;14.30;62.70;;;;;;5022691;28;20033;-61
2022/06/10 03:45:46;;;;;;;2.60;1.15;;;14.30;63.00;;;;;;5015428;28;20030;-61
2022/06/10 03:48:18;;;;;;;1.65;0.98;;;14.20;63.00;;;;;;5014542;28;20039;-62
2022/06/10 03:50:46;;;;;;;2.28;1.00;;;14.20;63.30;;;;;;5019456;28;20884;-62
2022/06/10 03:53:15;;;;;;;1.55;0.85;;;14.20;63.00;;;;;;5018995;28;20127;-62
2022/06/10 03:55:41;;;;;;;2.63;1.15;;;14.20;63.10;;;;;;5020649;28;22094;-62
2022/06/10 03:58:07;;;;;;;4.97;0.98;;;14.20;63.20;;;;;;5015497;28;20027;-61
2022/06/10 04:00:32;;;;;;;1.88;0.98;;;14.20;63.40;;;;;;5017145;28;20565;-61
2022/06/10 04:02:58;;;;;;;2.63;0.95;;;14.20;63.50;;;;;;5017598;28;20236;-61
2022/06/10 04:05:24;;;;;;;2.65;1.15;;;14.20;63.70;;;;;;5019426;28;20084;-61
2022/06/10 04:07:50;;;;;;;2.33;0.93;;;14.20;63.80;;;;;;5008311;28;20038;-61
2022/06/10 04:10:19;;;;;;;2.50;1.25;;;14.30;63.90;;;;;;5056335;28;20032;-61
2022/06/10 04:12:45;;;;;;;1.73;1.02;;;14.40;64.10;;;;;;5056867;28;20037;-60
2022/06/10 04:15:14;;;;;;;2.25;1.10;;;14.40;63.90;;;;;;5063690;28;20124;-60
2022/06/10 04:17:45;;;;;;;4.32;1.27;;;14.40;64.50;;;;;;5059605;28;20473;-61
2022/06/10 04:20:32;;;;;;;2.88;1.48;;;14.50;63.70;;;;;;5054761;28;20164;-61
2022/06/10 04:22:58;;;;;;;2.30;0.90;;;14.60;64.70;;;;;;5050582;28;20112;-61
2022/06/10 04:25:24;;;;;;;3.45;1.20;;;14.60;63.70;;;;;;5059981;28;20045;-61
2022/06/10 04:27:51;;;;;;;2.03;1.02;;;14.70;63.60;;;;;;5056347;28;20033;-61
2022/06/10 04:30:22;;;;;;;2.90;1.10;;;14.70;63.50;;;;;;5052431;28;20037;-61
2022/06/10 04:32:48;;;;;;;4.68;1.05;;;14.80;63.70;;;;;;5056581;28;20774;-61
2022/06/10 04:35:14;;;;;;;4.80;1.10;;;14.90;63.40;;;;;;5052215;28;20052;-61
2022/06/10 04:37:40;;;;;;;5.45;1.25;;;14.90;63.20;;;;;;5062494;28;20029;-62
2022/06/10 04:40:06;;;;;;;2.05;1.10;;;15.00;63.00;;;;;;5059624;28;20032;-61
2022/06/10 04:42:32;;;;;;;2.97;1.10;;;15.10;63.00;;;;;;5044176;28;20029;-61
2022/06/10 04:44:58;;;;;;;3.72;1.13;;;15.10;63.10;;;;;;5052403;28;20051;-61
2022/06/10 04:47:24;;;;;;;3.53;1.63;;;15.20;63.20;;;;;;5058199;28;20048;-62
2022/06/10 04:49:49;;;;;;;6.80;1.40;;;15.30;63.20;;;;;;5054604;28;20128;-61
2022/06/10 04:52:15;;;;;;;6.13;1.33;;;15.40;63.10;;;;;;5052813;28;20044;-61
2022/06/10 04:54:41;;;;;;;8.25;1.25;;;15.50;63.00;;;;;;5057519;28;20032;-62
2022/06/10 04:57:06;;;;;;;3.85;1.23;;;15.60;62.90;;;;;;5058354;28;20025;-61
2022/06/10 04:59:32;;;;;;;3.97;1.55;;;15.60;62.90;;;;;;5055607;28;20021;-61
2022/06/10 05:01:58;;;;;;;3.47;1.23;;;15.80;62.90;;;;;;5041095;28;20021;-61
2022/06/10 05:04:23;;;;;;;2.75;1.25;;;15.90;62.70;;;;;;5056176;28;20033;-61
2022/06/10 05:06:49;;;;;;;3.92;1.17;;;15.90;62.60;;;;;;5055309;28;20535;-61
2022/06/10 05:09:15;;;;;;;5.20;1.20;;;16.00;62.30;;;;;;5057464;28;20041;-61
2022/06/10 05:11:40;;;;;;;3.92;1.20;;;16.10;62.10;;;;;;5060485;28;20049;-62
2022/06/10 05:14:06;;;;;;;1.85;1.08;;;16.20;61.80;;;;;;5056450;28;20162;-60
2022/06/10 05:16:31;;;;;;;2.95;1.25;;;16.30;61.60;;;;;;5056980;28;20052;-61
2022/06/10 05:18:57;;;;;;;7.00;1.15;;;16.40;61.40;;;;;;5060025;28;20170;-61
2022/06/10 05:21:23;;;;;;;4.28;1.40;;;16.50;61.40;;;;;;5058148;28;20075;-61
2022/06/10 05:23:49;;;;;;;3.55;1.20;;;16.70;61.10;;;;;;5056539;28;20063;-61
2022/06/10 05:26:16;;;;;;;6.45;1.23;;;16.70;61.00;;;;;;5063433;28;20032;-61
2022/06/10 05:28:41;;;;;;;3.72;1.20;;;16.90;60.90;;;;;;5051149;28;20890;-62
2022/06/10 05:31:07;;;;;;;3.10;1.27;;;17.00;60.70;;;;;;5058210;28;20024;-61
2022/06/10 05:36:18;;;;;;;4.22;1.20;;;17.20;60.40;;;;;;5056898;28;20094;-61
2022/06/10 05:38:44;;;;;;;4.95;1.38;;;17.30;60.10;;;;;;5056285;28;20021;-62
2022/06/10 05:43:55;;;;;;;3.63;1.65;;;17.50;59.50;;;;;;5054682;28;20063;-61
2022/06/10 05:46:20;;;;;;;2.47;1.10;;;17.60;59.30;;;;;;5056587;28;20040;-61
2022/06/10 05:48:46;;;;;;;3.83;1.30;;;17.70;59.30;;;;;;5055269;28;20025;-61
2022/06/10 05:51:11;;;;;;;3.47;1.13;;;17.80;59.20;;;;;;5056935;28;20060;-61
2022/06/10 05:53:37;;;;;;;3.80;1.10;;;17.90;59.20;;;;;;5054717;28;20051;-61
2022/06/10 05:56:03;;;;;;;4.18;1.10;;;18.00;58.90;;;;;;5051657;28;20088;-62
2022/06/10 05:58:30;;;;;;;3.05;1.20;;;18.10;58.80;;;;;;5054859;28;20028;-61
2022/06/10 06:00:55;;;;;;;5.45;1.10;;;18.20;58.50;;;;;;5050064;28;20052;-61
2022/06/10 06:03:22;;;;;;;4.13;0.98;;;18.30;58.30;;;;;;5043142;28;20017;-61
2022/06/10 06:05:47;;;;;;;2.47;1.10;;;18.40;58.20;;;;;;5053962;28;20081;-61
2022/06/10 06:08:13;;;;;;;4.60;1.20;;;18.60;58.10;;;;;;5060020;28;20049;-62
2022/06/10 06:10:39;;;;;;;3.75;1.33;;;18.70;57.90;;;;;;5057498;28;20029;-63
2022/06/10 06:13:05;;;;;;;7.50;1.20;;;18.80;57.70;;;;;;5049177;28;20088;-62
2022/06/10 06:15:31;;;;;;;4.18;1.08;;;19.00;57.50;;;;;;5055239;28;20055;-62
2022/06/10 06:17:56;;;;;;;4.47;1.20;;;19.10;57.20;;;;;;5053061;28;20018;-63
2022/06/10 06:20:24;;;;;;;5.30;1.40;;;19.20;57.10;;;;;;5053184;28;20085;-62
2022/06/10 06:22:50;;;;;;;4.57;1.20;;;19.30;56.80;;;;;;5050177;28;20035;-63
2022/06/10 06:25:17;;;;;;;3.55;1.20;;;19.40;56.70;;;;;;5054358;28;20068;-62
2022/06/10 06:27:44;;;;;;;3.58;1.30;;;19.50;56.50;;;;;;5051697;28;20056;-63
2022/06/10 06:30:21;;;;;;;7.18;1.10;;;19.60;56.40;;;;;;5055725;28;20032;-62
2022/06/10 06:32:47;;;;;;;9.30;1.40;;;19.70;56.40;;;;;;5050986;28;20040;-62
2022/06/10 06:35:15;;;;;;;2.83;1.48;;;19.80;56.40;;;;;;5057203;28;20044;-62
2022/06/10 06:37:41;;;;;;;3.45;1.27;;;19.90;56.20;;;;;;5053241;28;20028;-63
2022/06/10 06:40:10;;;;;;;5.32;1.27;;;20.00;55.80;;;;;;5053052;28;20051;-63
2022/06/10 06:42:36;;;;;;;4.10;1.38;;;20.10;55.30;;;;;;5053149;28;20064;-62
2022/06/10 06:45:04;;;;;;;6.35;1.42;;;20.20;55.10;;;;;;5052571;28;20119;-62
2022/06/10 06:47:30;;;;;;;6.32;1.25;;;20.20;55.00;;;;;;5053826;28;20086;-63
2022/06/10 06:49:55;;;;;;;2.35;1.00;;;20.30;54.70;;;;;;5056706;28;20079;-63
2022/06/10 06:52:21;;;;;;;3.78;1.10;;;20.40;54.70;;;;;;5054077;28;20037;-63
2022/06/10 06:54:46;;;;;;;4.38;1.35;;;20.50;54.50;;;;;;5053936;28;20103;-63
2022/06/10 06:57:12;;;;;;;2.90;1.13;;;20.60;54.80;;;;;;5058907;28;20028;-63
2022/06/10 06:59:38;;;;;;;3.47;1.25;;;20.70;54.80;;;;;;5051901;28;20032;-63
2022/06/10 07:02:04;;;;;;;5.15;1.30;;;20.80;54.50;;;;;;5053223;28;20032;-63
2022/06/10 07:04:30;;;;;;;3.25;1.10;;;20.90;55.00;;;;;;5054398;28;20029;-63
2022/06/10 07:06:55;;;;;;;2.53;0.98;;;21.10;54.20;;;;;;5052788;28;20041;-63
2022/06/10 07:09:21;;;;;;;2.60;1.40;;;21.10;53.70;;;;;;5060982;28;20038;-63
2022/06/10 07:11:47;;;;;;;4.80;1.42;;;21.30;53.40;;;;;;5055352;28;20028;-63
2022/06/10 07:14:13;;;;;;;2.97;1.00;;;21.40;53.40;;;;;;5055966;28;20032;-62
2022/06/10 07:16:41;;;;;;;5.22;1.00;;;21.50;53.40;;;;;;5056234;28;20025;-63
2022/06/10 07:19:08;;;;;;;3.40;1.00;;;21.60;53.30;;;;;;5032970;28;20365;-64
2022/06/10 07:21:34;;;;;;;6.05;1.20;;;21.70;53.20;;;;;;5050631;28;20036;-63
2022/06/10 07:24:00;;;;;;;2.60;0.93;;;21.90;52.90;;;;;;5042789;28;20025;-63
2022/06/10 07:26:26;;;;;;;7.32;1.60;;;22.00;52.50;;;;;;5004848;28;20034;-63
2022/06/10 07:28:52;;;;;;;3.38;1.25;;;22.10;51.80;;;;;;5055696;28;20021;-63
2022/06/10 07:31:18;;;;;;;6.25;1.35;;;22.20;51.60;;;;;;5057111;28;20037;-63
2022/06/10 07:33:44;;;;;;;5.30;1.42;;;22.30;51.90;;;;;;5058567;28;20064;-63
2022/06/10 07:36:10;;;;;;;6.72;1.20;;;22.40;52.10;;;;;;5035723;28;20042;-63
2022/06/10 07:38:36;;;;;;;5.25;1.02;;;22.50;51.50;;;;;;5056939;28;20013;-63
2022/06/10 07:43:46;;;;;;;;;;;22.70;50.80;;;;;;5056157;28;20040;-63
2022/06/10 07:46:17;;;;;;;4.80;1.00;;;22.80;51.20;;;;;;5057010;28;20003;-64
2022/06/10 07:48:44;;;;;;;4.85;1.30;;;22.90;50.70;;;;;;5055508;28;20059;-63
2022/06/10 07:51:10;;;;;;;6.18;1.50;;;23.00;50.30;;;;;;5058497;28;20029;-63
2022/06/10 07:53:36;;;;;;;10.77;1.52;;;23.00;50.50;;;;;;5058978;28;20052;-63
2022/06/10 07:56:02;;;;;;;6.18;1.25;;;23.00;50.00;;;;;;5057739;28;20057;-63
2022/06/10 07:58:31;;;;;;;3.15;1.30;;;23.10;49.80;;;;;;5061759;28;20037;-63
2022/06/10 08:00:58;;;;;;;3.85;1.33;;;23.20;50.10;;;;;;5052718;28;20135;-63
2022/06/10 08:03:25;;;;;;;9.27;1.30;;;23.20;50.40;;;;;;5054264;28;20040;-63
2022/06/10 08:05:50;;;;;;;6.05;1.30;;;23.40;50.00;;;;;;5059022;28;20059;-63
2022/06/10 08:08:18;;;;;;;3.65;1.20;;;23.50;49.80;;;;;;5065985;28;20029;-64
2022/06/10 08:10:44;;;;;;;7.35;1.40;;;23.60;49.70;;;;;;5056083;28;20029;-64
2022/06/10 08:13:10;;;;;;;5.03;1.10;;;23.70;49.00;;;;;;5039256;28;20405;-63
2022/06/10 08:15:37;;;;;;;3.03;1.05;;;23.80;48.30;;;;;;5063404;28;20020;-63
2022/06/10 08:18:04;;;;;;;2.92;1.08;;;23.80;48.40;;;;;;5055853;28;20030;-64
2022/06/10 08:23:22;;;;;;;5.85;1.17;;;24.00;47.10;;;;;;5055844;28;20595;-63
2022/06/10 08:25:58;;;;;;;6.55;1.10;;;24.10;47.30;;;;;;5060131;28;20037;-64
2022/06/10 08:28:25;;;;;;;4.25;0.93;;;24.20;47.30;;;;;;5055413;28;20641;-64
2022/06/10 08:30:52;;;;;;;3.38;1.08;;;24.30;48.30;;;;;;5053481;28;20071;-64
2022/06/10 08:33:18;;;;;;;3.47;1.13;;;24.40;47.30;;;;;;5055979;28;20048;-64
2022/06/10 08:35:45;;;;;;;7.85;1.25;;;24.50;46.60;;;;;;5053162;28;20052;-64
2022/06/10 08:38:14;;;;;;;2.80;0.90;;;24.60;46.30;;;;;;5056227;28;20077;-63
2022/06/10 08:40:56;;;;;;;6.20;1.30;;;24.60;46.20;;;;;;5057354;28;20025;-63
2022/06/10 08:43:40;;;;;;;5.03;1.35;;;24.70;45.90;;;;;;5059173;28;20032;-64
2022/06/10 08:46:39;;;;;;;5.00;1.20;;;24.80;46.60;;;;;;5057095;28;20044;-63
2022/06/10 08:49:24;;;;;;;5.03;1.23;;;25.00;45.70;;;;;;5056139;28;20041;-63
2022/06/10 08:51:55;;;;;;;4.45;1.17;;;25.20;45.90;;;;;;5062256;28;20051;-63
2022/06/10 08:54:51;;;;;;;3.05;0.98;;;25.30;43.90;;;;;;5056071;28;20022;-63
2022/06/10 08:57:36;;;;;;;4.88;1.10;;;25.30;43.20;;;;;;5054680;28;20025;-63
2022/06/10 09:00:04;;;;;;;3.83;1.08;;;25.20;42.40;;;;;;5055857;28;20088;-63
2022/06/10 09:02:34;;;;;;;4.53;1.10;;;25.10;43.30;;;;;;5051265;28;20053;-64
2022/06/10 09:05:15;;;;;;;4.28;1.17;;;25.00;43.10;;;;;;5050803;28;20094;-64
2022/06/10 09:07:48;;;;;;;3.35;0.88;;;24.80;43.20;;;;;;5054382;28;20040;-64
2022/06/10 09:10:37;;;;;;;4.60;1.50;;;24.70;42.90;;;;;;5055063;28;20025;-64
2022/06/10 09:13:13;;;;;;;5.65;1.20;;;24.70;42.70;;;;;;5059955;28;20055;-64
2022/06/10 09:15:47;;;;;;;4.70;1.20;;;24.60;42.70;;;;;;5054236;28;20061;-63
2022/06/10 09:18:27;;;;;;;6.15;1.33;;;24.50;43.10;;;;;;5052714;28;20041;-63
2022/06/10 09:21:11;;;;;;;6.30;1.40;;;24.30;42.50;;;;;;5057690;28;20021;-64
2022/06/10 09:23:46;;;;;;;2.53;1.00;;;24.00;42.50;;;;;;5059250;28;20021;-63
2022/06/10 09:26:42;;;;;;;4.43;1.50;;;23.80;43.20;;;;;;5058542;28;20489;-64
2022/06/10 09:29:08;;;;;;;5.65;1.35;;;23.60;43.50;;;;;;5043046;28;20432;-63
2022/06/10 09:31:41;;;;;;;4.13;1.20;;;23.50;43.80;;;;;;5053694;28;20024;-63
2022/06/10 09:34:23;;;;;;;2.00;0.90;;;23.30;43.70;;;;;;5055042;28;20519;-63
2022/06/10 09:37:11;;;;;;;6.32;1.20;;;23.10;43.60;;;;;;5032283;28;20033;-63
2022/06/10 09:42:48;;;;;;;2.33;1.08;;;22.90;44.00;;;;;;5053692;28;20051;-63
2022/06/10 09:45:25;;;;;;;5.05;1.25;;;22.80;44.70;;;;;;5052099;28;20036;-64
2022/06/10 09:48:09;;;;;;;2.38;0.90;;;22.80;44.80;;;;;;5036120;28;20029;-63
2022/06/10 09:51:20;;;;;;;3.03;0.82;;;22.80;45.20;;;;;;5052741;28;20051;-64
2022/06/10 09:54:22;;;;;;;3.90;1.20;;;22.90;45.00;;;;;;4975316;28;20556;-64
2022/06/10 09:57:01;;;;;;;2.88;1.00;;;22.90;46.20;;;;;;4970045;28;20047;-63
2022/06/10 09:59:44;;;;;;;5.68;1.27;;;23.10;46.10;;;;;;4974918;28;20035;-64
2022/06/10 10:02:21;;;;;;;4.95;1.30;;;23.30;47.20;;;;;;4973516;28;20043;-64
2022/06/10 10:04:54;;;;;;;4.60;1.20;;;23.60;46.60;;;;;;4975734;28;20110;-64
2022/06/10 10:07:23;;;;;;;3.28;1.20;;;23.90;46.50;;;;;;4967413;28;20055;-65
2022/06/10 10:10:07;;;;;;;4.45;1.50;;;24.20;46.30;;;;;;4973379;28;20058;-64
2022/06/10 10:12:43;;;;;;;4.10;1.02;;;24.40;45.10;;;;;;4970614;28;20035;-64
2022/06/10 10:15:25;;;;;;;9.02;1.30;;;24.70;43.70;;;;;;4973005;28;20027;-64
2022/06/10 10:18:20;;;;;;;6.53;1.10;;;25.00;44.80;;;;;;4971824;28;20119;-64
2022/06/10 10:20:58;;;;;;;8.60;1.30;;;25.30;44.90;;;;;;4975588;28;20602;-64
2022/06/10 10:23:44;;;;;;;6.35;1.02;;;25.60;43.90;;;;;;4971957;28;20035;-64
2022/06/10 10:26:20;;;;;;;3.97;1.10;;;25.80;43.60;;;;;;4911964;28;20141;-65
2022/06/10 10:28:49;;;;;;;3.70;1.08;;;26.20;43.80;;;;;;4979570;28;20073;-65
2022/06/10 10:31:22;;;;;;;4.35;1.27;;;26.40;43.40;;;;;;5060964;28;20021;-64
2022/06/10 10:33:49;;;;;;;2.25;0.93;;;26.50;40.90;;;;;;5059834;28;20021;-64
2022/06/10 10:36:33;;;;;;;6.82;1.10;;;26.70;41.50;;;;;;5052604;28;20025;-64
2022/06/10 10:39:25;;;;;;;3.63;0.95;;;26.70;41.40;;;;;;5055756;28;20017;-65
2022/06/10 10:41:53;;;;;;;5.10;1.30;;;26.70;40.60;;;;;;5042296;28;20033;-63
2022/06/10 10:44:28;;;;;;;4.93;1.40;;;26.50;39.30;;;;;;5052540;28;20025;-63
2022/06/10 10:47:10;;;;;;;4.65;1.20;;;26.40;38.70;;;;;;5045602;28;20044;-63
2022/06/10 10:49:40;;;;;;;2.60;1.00;;;26.10;39.40;;;;;;5057146;28;20037;-63
2022/06/10 10:52:19;;;;;;;4.22;1.10;;;26.00;39.30;;;;;;5053848;28;20036;-64
2022/06/10 10:54:48;;;;;;;6.07;1.45;;;25.80;39.40;;;;;;5035609;28;20033;-63
2022/06/10 10:57:26;;;;;;;5.13;1.50;;;25.70;40.40;;;;;;5053665;28;20088;-63
2022/06/10 11:00:22;;;;;;;6.38;1.30;;;25.70;40.60;;;;;;5055677;28;20029;-63
2022/06/10 11:02:48;;;;;;;4.70;1.60;;;25.70;41.10;;;;;;5051862;28;20028;-63
2022/06/10 11:05:35;;;;;;;5.05;1.20;;;25.80;40.60;;;;;;5040381;28;20033;-63
2022/06/10 11:08:24;;;;;;;9.00;1.25;;;25.70;39.40;;;;;;5047224;28;20041;-64
2022/06/10 11:11:22;;;;;;;5.18;1.30;;;25.60;38.10;;;;;;5057534;28;20179;-64
2022/06/10 11:14:04;;;;;;;2.83;0.98;;;25.40;39.30;;;;;;5051467;28;20067;-64
2022/06/10 11:16:43;;;;;;;4.50;1.30;;;25.30;40.20;;;;;;5051454;28;20079;-63
2022/06/10 11:19:20;;;;;;;3.05;0.98;;;25.20;40.70;;;;;;5047239;28;20024;-63
2022/06/10 11:22:03;;;;;;;5.97;1.30;;;25.10;40.50;;;;;;5049560;28;20041;-64
2022/06/10 11:24:38;;;;;;;5.30;1.02;;;25.10;39.80;;;;;;5051024;28;20047;-64
2022/06/10 11:27:33;;;;;;;6.88;1.20;;;25.00;40.80;;;;;;5039218;28;20485;-64
2022/06/10 11:30:16;;;;;;;5.13;1.20;;;24.90;40.70;;;;;;5052031;28;20059;-64
2022/06/10 11:32:48;;;;;;;3.78;1.00;;;24.90;40.90;;;;;;5059282;28;20584;-64
2022/06/10 11:35:23;;;;;;;5.93;1.40;;;24.80;41.00;;;;;;5047706;28;20056;-64
2022/06/10 11:37:53;;;;;;;3.45;1.05;;;24.70;40.90;;;;;;5058662;28;20024;-63
2022/06/10 11:40:41;;;;;;;2.72;0.70;;;24.70;41.00;;;;;;5055665;28;20536;-64
2022/06/10 11:43:19;;;;;;;3.95;1.10;;;24.70;41.10;;;;;;5051604;28;20051;-64
2022/06/10 11:45:51;;;;;;;3.85;1.25;;;24.60;41.50;;;;;;5056130;28;20030;-65
2022/06/10 11:48:25;;;;;;;3.70;0.98;;;24.70;42.30;;;;;;5064050;28;20029;-64
2022/06/10 11:51:12;;;;;;;3.92;1.10;;;24.70;42.10;;;;;;5055933;28;20053;-64
2022/06/10 11:53:49;;;;;;;3.53;1.25;;;24.70;42.10;;;;;;5058267;28;20030;-64
2022/06/10 11:59:45;;;;;;;2.50;0.80;;;24.80;40.80;;;;;;5058236;28;20071;-64
2022/06/10 12:02:35;;;;;;;2.65;1.05;;;24.90;41.00;;;;;;5057831;28;20059;-64
2022/06/10 12:05:37;;;;;;;3.65;1.00;;;24.90;41.40;;;;;;5054813;28;20133;-64
2022/06/10 12:08:16;;;;;;;5.60;0.93;;;24.90;41.10;;;;;;5056320;28;20056;-64
2022/06/10 12:11:12;;;;;;;6.43;1.15;;;24.90;41.20;;;;;;5060991;28;20033;-64
2022/06/10 12:13:46;;;;;;;4.05;1.10;;;24.90;41.60;;;;;;5052725;28;20037;-64
2022/06/10 12:16:13;;;;;;;;;;;24.90;41.40;;;;;;5057974;28;20536;-63
2022/06/10 12:18:46;;;;;;;2.88;1.10;;;24.90;42.20;;;;;;5063533;28;19920;-64
2022/06/10 12:21:22;;;;;;;3.42;1.30;;;24.90;40.80;;;;;;5062486;28;20024;-64
2022/06/10 12:23:49;;;;;;;1.58;0.80;;;24.90;41.40;;;;;;5057274;28;20049;-63
2022/06/10 12:26:30;;;;;;;4.22;1.23;;;24.90;41.10;;;;;;5055051;28;20036;-64
2022/06/10 12:29:04;;;;;;;6.25;1.17;;;24.80;40.90;;;;;;5053160;28;20025;-64
2022/06/10 12:31:39;;;;;;;6.88;1.42;;;24.80;40.70;;;;;;5052128;28;20025;-64
2022/06/10 12:34:16;;;;;;;2.85;1.20;;;24.80;40.80;;;;;;5047417;28;20053;-64
2022/06/10 12:36:53;;;;;;;4.63;1.25;;;24.70;41.20;;;;;;5049712;28;20021;-64
2022/06/10 12:39:30;;;;;;;2.03;0.77;;;24.80;41.30;;;;;;5053301;28;20043;-64
2022/06/10 12:42:04;;;;;;;8.38;1.27;;;24.80;42.20;;;;;;5050758;28;20025;-64
2022/06/10 12:44:35;;;;;;;2.13;0.93;;;24.90;42.30;;;;;;5055671;28;20083;-64
2022/06/10 12:47:04;;;;;;;3.17;0.82;;;25.00;42.30;;;;;;5049879;28;20474;-64
2022/06/10 12:49:42;;;;;;;3.15;1.05;;;25.20;42.00;;;;;;5056537;28;20080;-64
2022/06/10 12:52:18;;;;;;;2.30;0.85;;;25.30;42.00;;;;;;5050344;28;20032;-64
2022/06/10 12:54:58;;;;;;;3.97;1.00;;;25.40;41.50;;;;;;5051462;28;20272;-64
2022/06/10 12:57:32;;;;;;;3.15;0.95;;;25.50;40.70;;;;;;5049511;28;20036;-64
2022/06/10 13:00:22;;;;;;;4.25;1.17;;;25.60;39.80;;;;;;5054620;28;20100;-64
2022/06/10 13:02:51;;;;;;;3.22;1.00;;;25.60;40.30;;;;;;5055162;28;20503;-63
2022/06/10 13:05:21;;;;;;;3.05;1.10;;;25.70;39.90;;;;;;5059026;28;20119;-64
2022/06/10 13:07:49;;;;;;;2.28;1.00;;;25.70;40.00;;;;;;5062923;28;20098;-63
2022/06/10 13:10:33;;;;;;;3.10;0.90;;;25.80;39.70;;;;;;5057239;28;20071;-63
2022/06/10 13:13:09;;;;;;;6.32;1.27;;;25.80;39.40;;;;;;5055445;28;20032;-64
2022/06/10 13:15:35;;;;;;;4.50;0.85;;;25.80;39.70;;;;;;5048141;28;20029;-64
2022/06/10 13:18:18;;;;;;;3.08;1.13;;;25.80;40.70;;;;;;5056305;28;20017;-63
2022/06/10 13:20:46;;;;;;;5.10;1.67;;;25.80;39.60;;;;;;5053292;28;20094;-64
2022/06/10 13:23:26;;;;;;;21.35;1.08;;;25.90;39.90;;;;;;5054266;28;20026;-64
2022/06/10 13:26:04;;;;;;;2.47;1.10;;;25.90;39.70;;;;;;5035466;28;20684;-64
2022/06/10 13:28:37;;;;;;;6.20;1.20;;;25.90;39.80;;;;;;5055182;28;20080;-64
2022/06/10 13:31:13;;;;;;;2.47;0.93;;;26.00;39.40;;;;;;5049959;28;20021;-64
2022/06/10 13:34:01;;;;;;;2.22;0.82;;;26.00;39.60;;;;;;5055222;28;20029;-64
2022/06/10 13:36:35;;;;;;;2.10;0.75;;;26.10;38.70;;;;;;5055440;28;20108;-63
2022/06/10 13:39:02;;;;;;;3.85;1.20;;;26.20;39.20;;;;;;5053393;28;20023;-63
2022/06/10 13:41:49;;;;;;;1.77;0.80;;;26.40;39.30;;;;;;5056964;28;20063;-64